Time;durP1;ratioP1;P1;durP2;ratioP2;P2;SDS_P1;SDS_P2;PMS_P1;PMS_P2;Temp;Humidity;BMP_temperature;BMP_pressure;BME280_temperature;BME280_humidity;BME280_pressure;Samples;Min_cycle;Max_cycle;Signal;HPM_P1;HPM_P2
2021/05/11 04:21:06;;;;;;;8.02;6.05;;;;;;;;;;6174675;23;20112;-70
2021/05/11 04:23:32;;;;;;;9.88;6.47;;;;;;;;;;6185842;23;20005;-71
2021/05/11 04:25:59;;;;;;;11.90;7.03;;;;;;;;;;6185225;23;20007;-70
2021/05/11 04:28:25;;;;;;;15.45;7.90;;;;;;;;;;6187576;23;20009;-71
2021/05/11 04:30:51;;;;;;;13.00;7.03;;;;;;;;;;6187957;23;20329;-71
2021/05/11 04:33:21;;;;;;;12.15;6.53;;;;;;;;;;6186565;23;20076;-71
2021/05/11 04:35:50;;;;;;;10.75;6.70;;;;;;;;;;6186200;23;20430;-71
2021/05/11 04:38:17;;;;;;;14.50;6.45;;;;;;;;;;6186431;23;20001;-72
2021/05/11 04:40:56;;;;;;;13.48;6.97;;;;;;;;;;6186911;23;20008;-71
2021/05/11 04:43:28;;;;;;;9.98;6.93;;;;;;;;;;6186691;23;20047;-71
2021/05/11 04:46:13;;;;;;;13.65;7.32;;;;;;;;;;6185913;23;20012;-69
2021/05/11 04:48:39;;;;;;;13.20;8.32;;;;;;;;;;6186907;23;20009;-71
2021/05/11 04:51:08;;;;;;;16.77;10.98;;;;;;;;;;6159511;23;20044;-70
2021/05/11 04:53:34;;;;;;;15.27;9.38;;;;;;;;;;6185442;23;20032;-69
2021/05/11 04:56:00;;;;;;;15.10;9.07;;;;;;;;;;6187581;23;20028;-70
2021/05/11 04:58:26;;;;;;;13.80;7.53;;;;;;;;;;6161321;23;20005;-69
2021/05/11 05:00:59;;;;;;;10.13;7.25;;;;;;;;;;6187173;23;20362;-70
2021/05/11 05:03:28;;;;;;;18.30;8.15;;;;;;;;;;6159700;23;20009;-69
2021/05/11 05:05:55;;;;;;;13.93;7.05;;;;;;;;;;6159366;23;20033;-70
2021/05/11 05:08:21;;;;;;;15.27;8.18;;;;;;;;;;6159568;23;20433;-70
2021/05/11 05:10:47;;;;;;;14.07;7.20;;;;;;;;;;6185713;23;20004;-68
2021/05/11 05:13:20;;;;;;;14.98;7.50;;;;;;;;;;6161235;23;20009;-69
2021/05/11 05:15:49;;;;;;;12.25;6.88;;;;;;;;;;6185780;23;20009;-70
2021/05/11 05:18:19;;;;;;;15.60;8.57;;;;;;;;;;6160515;23;20005;-69
2021/05/11 05:20:47;;;;;;;17.88;7.43;;;;;;;;;;6161218;23;20427;-72
2021/05/11 05:23:15;;;;;;;12.85;7.13;;;;;;;;;;6187256;23;20032;-72
2021/05/11 05:25:41;;;;;;;17.05;7.13;;;;;;;;;;6187406;23;20493;-72
2021/05/11 05:28:10;;;;;;;20.10;8.70;;;;;;;;;;6186992;23;20105;-72
2021/05/11 05:30:36;;;;;;;22.23;7.82;;;;;;;;;;6182581;23;20005;-71
2021/05/11 05:33:02;;;;;;;13.63;8.13;;;;;;;;;;6186937;23;20130;-72
2021/05/11 05:35:32;;;;;;;12.63;7.22;;;;;;;;;;6187189;23;20378;-73
2021/05/11 05:37:58;;;;;;;13.43;8.00;;;;;;;;;;6173530;23;20028;-72
2021/05/11 05:40:25;;;;;;;18.02;8.25;;;;;;;;;;6183829;23;20080;-74
2021/05/11 05:42:51;;;;;;;19.10;8.23;;;;;;;;;;6173145;23;20009;-72
2021/05/11 05:45:17;;;;;;;12.93;7.40;;;;;;;;;;6184711;23;20092;-70
2021/05/11 05:47:53;;;;;;;11.90;6.47;;;;;;;;;;6185935;23;20008;-73
2021/05/11 06:08:44;;;;;;;10.38;5.95;;;;;;;;;;6188988;23;20090;-68
2021/05/11 06:11:31;;;;;;;9.57;5.68;;;;;;;;;;6216064;23;20001;-68
2021/05/11 06:19:19;;;;;;;21.90;11.20;;;;;;;;;;6147551;23;20095;-70
2021/05/11 06:21:44;;;;;;;10.77;6.55;;;;;;;;;;6215600;23;20007;-73
2021/05/11 06:24:16;;;;;;;18.90;7.20;;;;;;;;;;6189043;23;20008;-71
2021/05/11 06:27:06;;;;;;;15.80;8.68;;;;;;;;;;6189615;23;20046;-74
2021/05/11 06:29:37;;;;;;;9.80;6.70;;;;;;;;;;6188892;23;20005;-71
2021/05/11 06:32:03;;;;;;;22.73;11.93;;;;;;;;;;6216327;23;20334;-71
2021/05/11 06:34:30;;;;;;;12.48;6.60;;;;;;;;;;6216568;23;20032;-68
2021/05/11 06:37:03;;;;;;;12.07;7.03;;;;;;;;;;6216456;23;20001;-72
2021/05/11 06:39:35;;;;;;;12.10;6.70;;;;;;;;;;6215943;23;20008;-72
2021/05/11 06:42:01;;;;;;;9.82;6.45;;;;;;;;;;6216183;23;20024;-70
2021/05/11 06:44:54;;;;;;;10.90;5.75;;;;;;;;;;6215199;23;20015;-70
2021/05/11 06:55:30;;;;;;;10.73;6.00;;;;;;;;;;6067038;23;20443;-73
2021/05/11 06:57:56;;;;;;;12.15;6.07;;;;;;;;;;6185458;23;20012;-70
2021/05/11 07:00:22;;;;;;;10.45;5.90;;;;;;;;;;6216153;23;20340;-71
2021/05/11 07:02:49;;;;;;;9.18;6.07;;;;;;;;;;6215642;23;20086;-70
2021/05/11 07:05:15;;;;;;;10.77;5.22;;;;;;;;;;6215442;23;20009;-70
2021/05/11 07:07:44;;;;;;;11.02;5.50;;;;;;;;;;6215733;23;20004;-68
2021/05/11 07:10:19;;;;;;;8.73;6.03;;;;;;;;;;6216340;23;20080;-70
2021/05/11 07:15:30;;;;;;;14.23;5.22;;;;;;;;;;6216380;23;20035;-70
2021/05/11 07:18:06;;;;;;;12.25;4.80;;;;;;;;;;6216101;23;20345;-70
2021/05/11 07:20:32;;;;;;;10.18;5.05;;;;;;;;;;6215980;23;20444;-70
2021/05/11 07:23:01;;;;;;;12.02;4.65;;;;;;;;;;6215871;23;20000;-70
2021/05/11 07:25:31;;;;;;;6.65;4.82;;;;;;;;;;6215438;23;20035;-70
2021/05/11 07:30:30;;;;;;;10.73;4.82;;;;;;;;;;6224798;23;20044;-71
2021/05/11 07:32:56;;;;;;;;;;;;;;;;;;6215876;23;20319;-71
2021/05/11 07:35:25;;;;;;;6.65;4.32;;;;;;;;;;6215978;23;19979;-73
2021/05/11 07:37:57;;;;;;;10.10;4.75;;;;;;;;;;6215705;23;20008;-72
2021/05/11 07:40:32;;;;;;;8.00;4.20;;;;;;;;;;6215078;23;20428;-70
2021/05/11 07:42:58;;;;;;;7.53;3.58;;;;;;;;;;6189120;23;20058;-70
2021/05/11 07:45:32;;;;;;;8.57;4.50;;;;;;;;;;6215939;23;20418;-69
2021/05/11 08:17:41;;;;;;;11.50;3.67;;;;;;;;;;6225839;23;20013;-69
2021/05/11 08:23:17;;;;;;;6.05;3.20;;;;;;;;;;6215460;23;20032;-69
2021/05/11 08:28:19;;;;;;;10.63;4.30;;;;;;;;;;6225970;23;20087;-69
2021/05/11 08:30:45;;;;;;;8.40;2.92;;;;;;;;;;6215473;23;20004;-68
2021/05/11 08:33:14;;;;;;;3.55;2.92;;;;;;;;;;6215332;23;20009;-70
2021/05/11 08:35:40;;;;;;;9.88;3.30;;;;;;;;;;6215372;23;20385;-69
2021/05/11 08:38:06;;;;;;;3.85;2.60;;;;;;;;;;6215802;23;20001;-69
2021/05/11 08:40:33;;;;;;;5.28;2.63;;;;;;;;;;6215405;23;20337;-69
2021/05/11 08:43:02;;;;;;;4.78;3.40;;;;;;;;;;6215349;23;20005;-69
2021/05/11 08:45:33;;;;;;;8.13;3.00;;;;;;;;;;6215239;23;20007;-67
2021/05/11 08:48:02;;;;;;;6.93;3.10;;;;;;;;;;6214301;23;20008;-68
2021/05/11 08:50:38;;;;;;;5.80;3.00;;;;;;;;;;6189136;23;20005;-68
2021/05/11 09:07:18;;;;;;;6.57;2.67;;;;;;;;;;6215373;23;20016;-69
2021/05/11 09:24:01;;;;;;;4.25;1.98;;;;;;;;;;6217478;23;20016;-68
2021/05/11 09:26:54;;;;;;;5.10;2.40;;;;;;;;;;6190597;23;20055;-68
2021/05/11 09:45:01;;;;;;;5.65;2.30;;;;;;;;;;6217699;23;20009;-70
2021/05/11 09:55:11;;;;;;;6.35;1.92;;;;;;;;;;6216064;23;20016;-71
2021/05/11 09:57:48;;;;;;;4.30;1.75;;;;;;;;;;6188827;23;20000;-73
2021/05/11 10:12:05;;;;;;;6.78;2.08;;;;;;;;;;6216235;23;20383;-72
2021/05/11 10:40:56;;;;;;;9.13;2.70;;;;;;;;;;6226744;23;20028;-71
2021/05/11 10:43:49;;;;;;;3.45;2.00;;;;;;;;;;6216697;23;20005;-71
2021/05/11 10:46:44;;;;;;;11.57;3.55;;;;;;;;;;6215352;23;20001;-72
2021/05/11 10:49:26;;;;;;;8.43;3.40;;;;;;;;;;6190122;23;20011;-72
2021/05/11 10:52:19;;;;;;;8.48;2.55;;;;;;;;;;6216955;23;20434;-70
2021/05/11 10:55:10;;;;;;;9.32;3.10;;;;;;;;;;6191161;23;20000;-72
2021/05/11 10:57:44;;;;;;;12.20;4.78;;;;;;;;;;6188671;23;20024;-69
2021/05/11 11:00:29;;;;;;;14.88;2.53;;;;;;;;;;6189912;23;20299;-72
2021/05/11 11:03:14;;;;;;;6.88;1.58;;;;;;;;;;6215919;23;20004;-69
2021/05/11 11:05:44;;;;;;;11.48;4.90;;;;;;;;;;6190238;23;20043;-71
2021/05/11 11:08:26;;;;;;;17.48;6.25;;;;;;;;;;6217008;23;20015;-72
2021/05/11 11:10:55;;;;;;;15.02;5.90;;;;;;;;;;6189943;23;20012;-71
2021/05/11 11:13:21;;;;;;;11.02;3.97;;;;;;;;;;6190033;23;20029;-69
2021/05/11 11:15:48;;;;;;;5.78;1.63;;;;;;;;;;6189629;23;20005;-72
2021/05/11 11:18:22;;;;;;;12.27;4.50;;;;;;;;;;6216154;23;20436;-71
2021/05/11 11:21:07;;;;;;;5.75;1.42;;;;;;;;;;6215498;23;20339;-68
2021/05/11 11:23:42;;;;;;;4.20;1.70;;;;;;;;;;6189324;23;20084;-68
2021/05/11 11:26:10;;;;;;;8.38;3.83;;;;;;;;;;6189192;23;20012;-68
2021/05/11 11:28:39;;;;;;;2.78;1.50;;;;;;;;;;6215738;23;20004;-68
2021/05/11 11:31:23;;;;;;;7.38;3.00;;;;;;;;;;6188898;23;20004;-68
2021/05/11 11:33:53;;;;;;;7.93;2.08;;;;;;;;;;6189533;23;20072;-69
2021/05/11 11:36:35;;;;;;;3.10;1.38;;;;;;;;;;6215952;23;20028;-69
2021/05/11 11:39:03;;;;;;;7.80;2.50;;;;;;;;;;6189500;23;20012;-68
2021/05/11 11:41:29;;;;;;;3.97;1.88;;;;;;;;;;6189601;23;20341;-67
2021/05/11 11:43:55;;;;;;;3.40;1.60;;;;;;;;;;6216654;23;20005;-68
2021/05/11 11:46:25;;;;;;;6.10;1.83;;;;;;;;;;6189458;23;20012;-70
2021/05/11 11:48:59;;;;;;;8.88;2.95;;;;;;;;;;6189356;23;20004;-68
2021/05/11 11:51:30;;;;;;;4.22;1.88;;;;;;;;;;6188705;23;20013;-68
2021/05/11 11:54:31;;;;;;;7.57;1.42;;;;;;;;;;6215439;23;20000;-70
2021/05/11 11:59:33;;;;;;;10.50;3.53;;;;;;;;;;6225647;23;20015;-67
2021/05/11 12:02:16;;;;;;;4.95;2.00;;;;;;;;;;6215420;23;20075;-69
2021/05/11 12:04:44;;;;;;;7.85;1.85;;;;;;;;;;6189056;23;20103;-69
2021/05/11 12:07:10;;;;;;;5.97;2.55;;;;;;;;;;6189167;23;20008;-69
2021/05/11 12:09:36;;;;;;;5.80;2.05;;;;;;;;;;6188914;23;20020;-68
2021/05/11 12:12:05;;;;;;;12.98;2.92;;;;;;;;;;6187963;23;20366;-69
2021/05/11 12:14:37;;;;;;;4.28;2.15;;;;;;;;;;6189351;23;20460;-69
2021/05/11 12:17:03;;;;;;;5.55;1.23;;;;;;;;;;6216595;23;20075;-70
2021/05/11 12:19:32;;;;;;;2.80;1.00;;;;;;;;;;6215410;23;20028;-68
2021/05/11 12:21:59;;;;;;;7.25;1.55;;;;;;;;;;6188792;23;20315;-67
2021/05/11 12:24:27;;;;;;;3.13;1.20;;;;;;;;;;6215458;23;20004;-68
2021/05/11 12:26:53;;;;;;;2.97;1.00;;;;;;;;;;6189365;23;20005;-68
2021/05/11 12:29:20;;;;;;;4.20;1.10;;;;;;;;;;6187309;23;20091;-68
2021/05/11 12:31:50;;;;;;;3.50;1.60;;;;;;;;;;6189174;23;20087;-70
2021/05/11 12:34:21;;;;;;;7.95;1.70;;;;;;;;;;6188549;23;20015;-68
2021/05/11 13:32:19;;;;;;;3.30;1.93;;;;;;;;;;6196849;23;20109;-70
2021/05/11 13:34:45;;;;;;;3.17;1.65;;;;;;;;;;6160699;23;20244;-70
2021/05/11 13:37:11;;;;;;;4.35;1.83;;;;;;;;;;6160811;23;20005;-71
2021/05/11 13:39:37;;;;;;;3.25;1.58;;;;;;;;;;6160602;23;20013;-70
2021/05/11 13:42:03;;;;;;;4.63;1.40;;;;;;;;;;6160788;23;20009;-71
2021/05/11 13:44:29;;;;;;;2.50;1.33;;;;;;;;;;6160437;23;20508;-72
2021/05/11 13:46:55;;;;;;;4.47;1.80;;;;;;;;;;6186686;23;20008;-72
2021/05/11 13:49:55;;;;;;;5.22;1.70;;;;;;;;;;6186241;23;19997;-74
2021/05/11 13:52:21;;;;;;;5.85;1.50;;;;;;;;;;6160253;23;20064;-72
2021/05/11 13:54:52;;;;;;;3.45;1.40;;;;;;;;;;6186567;23;20001;-70
2021/05/11 14:02:43;;;;;;;5.43;1.70;;;;;;;;;;6186502;23;20481;-71
2021/05/11 14:05:15;;;;;;;8.27;1.73;;;;;;;;;;6160654;23;20378;-71
2021/05/11 14:07:44;;;;;;;4.55;1.92;;;;;;;;;;6160624;23;20008;-71
2021/05/11 14:10:27;;;;;;;4.68;2.95;;;;;;;;;;6186612;23;20016;-73
2021/05/11 14:12:56;;;;;;;6.30;2.47;;;;;;;;;;6160549;23;20087;-70
2021/05/11 14:15:22;;;;;;;4.05;2.00;;;;;;;;;;6160577;23;20011;-71
2021/05/11 14:17:51;;;;;;;4.95;2.30;;;;;;;;;;6160185;23;20028;-71
2021/05/11 14:20:17;;;;;;;6.50;3.38;;;;;;;;;;6160748;23;20007;-71
2021/05/11 14:22:43;;;;;;;2.78;1.60;;;;;;;;;;6160316;23;20016;-71
2021/05/11 14:25:13;;;;;;;3.97;1.50;;;;;;;;;;6159999;23;20013;-71
2021/05/11 14:27:42;;;;;;;5.22;2.45;;;;;;;;;;6186341;23;20009;-71
2021/05/11 14:30:14;;;;;;;3.40;1.35;;;;;;;;;;6160511;23;20326;-72
2021/05/11 14:32:40;;;;;;;6.07;1.70;;;;;;;;;;6160243;23;20012;-71
2021/05/11 14:35:10;;;;;;;3.95;1.67;;;;;;;;;;6160502;23;20514;-71
2021/05/11 14:37:36;;;;;;;3.67;1.60;;;;;;;;;;6160382;23;20056;-72
2021/05/11 14:40:03;;;;;;;6.43;1.75;;;;;;;;;;6159967;23;20031;-71
2021/05/11 14:42:29;;;;;;;2.90;1.80;;;;;;;;;;6160382;23;20009;-70
2021/05/11 14:44:58;;;;;;;2.72;1.40;;;;;;;;;;6159617;23;20008;-70
2021/05/11 14:47:28;;;;;;;4.65;2.17;;;;;;;;;;6159253;23;20005;-73
2021/05/11 14:49:55;;;;;;;2.88;1.50;;;;;;;;;;6160421;23;20011;-71
2021/05/11 14:52:21;;;;;;;3.28;1.60;;;;;;;;;;6160225;23;20084;-73
2021/05/11 14:54:47;;;;;;;2.63;1.50;;;;;;;;;;6160184;23;20001;-69
2021/05/11 14:57:13;;;;;;;4.18;1.50;;;;;;;;;;6186051;23;20430;-70
2021/05/11 14:59:42;;;;;;;1.70;1.38;;;;;;;;;;6186384;23;20008;-71
2021/05/11 15:02:14;;;;;;;3.15;1.70;;;;;;;;;;6160285;23;20005;-70
2021/05/11 15:04:44;;;;;;;1.95;1.25;;;;;;;;;;6159044;23;20108;-72
2021/05/11 15:07:16;;;;;;;4.43;1.67;;;;;;;;;;6159211;23;20005;-71
2021/05/11 15:09:42;;;;;;;6.35;1.77;;;;;;;;;;6159690;23;20009;-71
2021/05/11 15:12:11;;;;;;;11.00;1.85;;;;;;;;;;6185939;23;20434;-71
2021/05/11 15:14:40;;;;;;;2.42;1.60;;;;;;;;;;6184080;23;20067;-70
2021/05/11 15:19:48;;;;;;;5.53;1.83;;;;;;;;;;6196401;23;20517;-71
2021/05/11 15:22:14;;;;;;;5.15;1.92;;;;;;;;;;6186050;23;20017;-71
2021/05/11 15:24:43;;;;;;;11.18;2.60;;;;;;;;;;6186209;23;20005;-70
2021/05/11 15:27:16;;;;;;;3.88;1.90;;;;;;;;;;6159943;23;20005;-71
2021/05/11 15:29:42;;;;;;;3.08;1.80;;;;;;;;;;6159560;23;20020;-71
2021/05/11 15:32:29;;;;;;;4.00;1.88;;;;;;;;;;6159852;23;20092;-70
2021/05/11 15:34:58;;;;;;;6.18;1.95;;;;;;;;;;6159776;23;20009;-71
2021/05/11 15:37:27;;;;;;;3.90;2.00;;;;;;;;;;6186241;23;20060;-70
2021/05/11 15:39:53;;;;;;;3.42;1.90;;;;;;;;;;6185875;23;20028;-71
2021/05/11 15:42:22;;;;;;;5.38;1.98;;;;;;;;;;6159945;23;20004;-71
2021/05/11 15:44:51;;;;;;;3.70;1.70;;;;;;;;;;6159593;23;20020;-70
2021/05/11 15:47:18;;;;;;;3.65;1.90;;;;;;;;;;6159478;23;20426;-71
2021/05/11 15:49:46;;;;;;;9.60;2.17;;;;;;;;;;6159853;23;20009;-71
2021/05/11 15:52:12;;;;;;;6.63;1.88;;;;;;;;;;6185769;23;20008;-71
2021/05/11 15:54:41;;;;;;;4.80;1.55;;;;;;;;;;6159973;23;20001;-70
2021/05/11 15:57:07;;;;;;;4.63;1.50;;;;;;;;;;6185915;23;20024;-70
2021/05/11 15:59:33;;;;;;;5.25;2.08;;;;;;;;;;6185684;23;20048;-70
2021/05/11 16:02:00;;;;;;;7.88;1.80;;;;;;;;;;6186384;23;20012;-70
2021/05/11 16:04:26;;;;;;;4.10;1.58;;;;;;;;;;6185727;23;20088;-70
2021/05/11 16:06:57;;;;;;;5.43;1.85;;;;;;;;;;6159377;23;20443;-70
2021/05/11 16:09:23;;;;;;;8.88;2.05;;;;;;;;;;6159295;23;20009;-70
2021/05/11 16:11:53;;;;;;;3.45;1.92;;;;;;;;;;6185293;23;20016;-70
2021/05/11 16:14:19;;;;;;;4.07;1.50;;;;;;;;;;6159664;23;20019;-70
2021/05/11 16:16:45;;;;;;;3.92;1.63;;;;;;;;;;6159770;23;20029;-69
2021/05/11 16:19:13;;;;;;;10.95;1.73;;;;;;;;;;6185648;23;20001;-71
2021/05/11 16:21:40;;;;;;;5.70;1.77;;;;;;;;;;6185463;23;20005;-71
2021/05/11 16:24:08;;;;;;;5.35;1.65;;;;;;;;;;6159103;23;20040;-70
2021/05/11 16:26:38;;;;;;;6.65;2.35;;;;;;;;;;6185469;23;20427;-71
2021/05/11 16:29:07;;;;;;;6.45;2.00;;;;;;;;;;6159546;23;20457;-73
2021/05/11 16:31:33;;;;;;;8.15;2.15;;;;;;;;;;6186021;23;20008;-70
2021/05/11 16:33:59;;;;;;;6.28;1.83;;;;;;;;;;6159550;23;20005;-70
2021/05/11 16:36:28;;;;;;;4.43;2.20;;;;;;;;;;6185576;23;20028;-71
2021/05/11 16:38:57;;;;;;;4.55;1.90;;;;;;;;;;6185845;23;20064;-71
2021/05/11 16:41:23;;;;;;;4.10;2.00;;;;;;;;;;6158629;23;20005;-72
2021/05/11 16:43:57;;;;;;;5.75;1.70;;;;;;;;;;6159117;23;20334;-74
2021/05/11 16:46:26;;;;;;;4.80;2.10;;;;;;;;;;6159413;23;20438;-70
2021/05/11 16:48:52;;;;;;;5.03;1.90;;;;;;;;;;6159158;23;20012;-70
2021/05/11 16:51:18;;;;;;;4.50;1.80;;;;;;;;;;6185361;23;20000;-70
2021/05/11 16:53:47;;;;;;;5.05;1.90;;;;;;;;;;6185532;23;20461;-70
2021/05/11 17:09:12;;;;;;;4.63;1.73;;;;;;;;;;6164212;23;19924;-76
2021/05/11 17:11:39;;;;;;;9.10;2.75;;;;;;;;;;6185231;23;20385;-71
2021/05/11 17:14:06;;;;;;;3.53;1.83;;;;;;;;;;6185412;23;20059;-72
2021/05/11 17:16:32;;;;;;;4.65;2.13;;;;;;;;;;6185296;23;20005;-72
2021/05/11 17:18:59;;;;;;;4.78;1.75;;;;;;;;;;6185023;23;20012;-72
2021/05/11 17:21:26;;;;;;;9.18;1.75;;;;;;;;;;6185506;23;20001;-72
2021/05/11 17:23:52;;;;;;;5.00;2.17;;;;;;;;;;6185324;23;20441;-71
2021/05/11 17:26:18;;;;;;;3.72;1.80;;;;;;;;;;6158814;23;20020;-72
2021/05/11 17:28:50;;;;;;;4.63;1.88;;;;;;;;;;6185239;23;20377;-71
2021/05/11 17:31:19;;;;;;;14.05;2.20;;;;;;;;;;6184025;23;20055;-72
2021/05/11 17:33:46;;;;;;;3.72;2.05;;;;;;;;;;6186214;23;20464;-75
2021/05/11 17:36:12;;;;;;;5.85;2.47;;;;;;;;;;6186842;23;20001;-72
2021/05/11 17:38:38;;;;;;;7.93;2.30;;;;;;;;;;6187012;23;20005;-72
2021/05/11 17:41:06;;;;;;;5.88;2.28;;;;;;;;;;6186516;23;20005;-72
2021/05/11 17:43:35;;;;;;;5.55;1.98;;;;;;;;;;6186938;23;20005;-72
2021/05/11 17:46:01;;;;;;;9.07;2.47;;;;;;;;;;6186899;23;20005;-72
2021/05/11 17:48:30;;;;;;;8.15;2.67;;;;;;;;;;6186976;23;20430;-73
2021/05/11 17:50:57;;;;;;;6.15;2.60;;;;;;;;;;6186787;23;20039;-72
2021/05/11 17:53:23;;;;;;;4.75;2.38;;;;;;;;;;6186723;23;20437;-73
2021/05/11 17:55:49;;;;;;;6.90;2.63;;;;;;;;;;6186673;23;20518;-72
2021/05/11 17:58:16;;;;;;;10.75;2.63;;;;;;;;;;6160434;23;20096;-72
2021/05/11 18:00:41;;;;;;;7.18;2.50;;;;;;;;;;6160375;23;20004;-72
2021/05/11 18:03:08;;;;;;;14.20;2.65;;;;;;;;;;6187062;23;20453;-72
2021/05/11 18:05:36;;;;;;;10.07;3.42;;;;;;;;;;6186625;23;20055;-71
2021/05/11 18:08:06;;;;;;;7.72;3.80;;;;;;;;;;6186683;23;20081;-71
2021/05/11 18:10:33;;;;;;;5.75;2.40;;;;;;;;;;6186323;23;20039;-70
2021/05/11 18:12:59;;;;;;;7.88;2.67;;;;;;;;;;6160491;23;20013;-71
2021/05/11 18:15:26;;;;;;;6.93;2.65;;;;;;;;;;6186636;23;20056;-70
2021/05/11 18:17:52;;;;;;;7.28;2.70;;;;;;;;;;6186935;23;20120;-71
2021/05/11 18:20:18;;;;;;;6.20;2.50;;;;;;;;;;6186760;23;20360;-71
2021/05/11 18:22:44;;;;;;;7.05;3.05;;;;;;;;;;6186539;23;20005;-70
2021/05/11 18:25:11;;;;;;;7.88;3.00;;;;;;;;;;6186489;23;20048;-70
2021/05/11 18:27:38;;;;;;;5.90;2.63;;;;;;;;;;6186784;23;20028;-70
2021/05/11 18:30:07;;;;;;;10.80;2.60;;;;;;;;;;6186320;23;20422;-71
2021/05/11 18:32:33;;;;;;;8.90;2.42;;;;;;;;;;6160397;23;20013;-70
2021/05/11 18:35:01;;;;;;;7.32;2.75;;;;;;;;;;6186835;23;20005;-70
2021/05/11 18:37:34;;;;;;;7.03;2.45;;;;;;;;;;6186738;23;20009;-70
2021/05/11 18:40:00;;;;;;;6.35;2.47;;;;;;;;;;6159996;23;20009;-70
2021/05/11 18:42:28;;;;;;;6.72;2.83;;;;;;;;;;6186730;23;20023;-71
2021/05/11 18:44:55;;;;;;;13.68;2.50;;;;;;;;;;6186102;23;20008;-72
2021/05/11 18:47:21;;;;;;;8.07;2.10;;;;;;;;;;6186326;23;20051;-69
2021/05/11 18:49:47;;;;;;;8.50;2.78;;;;;;;;;;6186214;23;20434;-68
2021/05/11 18:52:15;;;;;;;7.18;2.50;;;;;;;;;;6159857;23;20457;-70
2021/05/11 18:54:43;;;;;;;6.90;2.30;;;;;;;;;;6186614;23;20422;-69
2021/05/11 18:57:09;;;;;;;8.18;2.58;;;;;;;;;;6184475;23;20001;-70
2021/05/11 18:59:35;;;;;;;6.78;2.55;;;;;;;;;;6158374;23;20001;-70
2021/05/11 19:02:01;;;;;;;6.68;2.50;;;;;;;;;;6185570;23;20005;-71
2021/05/11 19:04:27;;;;;;;7.70;2.95;;;;;;;;;;6182299;23;19997;-71
2021/05/11 19:06:54;;;;;;;19.27;2.40;;;;;;;;;;6185363;23;20009;-69
2021/05/11 19:09:20;;;;;;;7.00;2.80;;;;;;;;;;6168293;23;20430;-71
2021/05/11 19:11:49;;;;;;;9.40;3.10;;;;;;;;;;6183687;23;20036;-69
2021/05/11 19:14:16;;;;;;;4.80;2.63;;;;;;;;;;6177049;23;20049;-69
2021/05/11 19:16:45;;;;;;;7.50;2.60;;;;;;;;;;6185636;23;20009;-69
2021/05/11 19:19:11;;;;;;;7.53;2.97;;;;;;;;;;6175743;23;20533;-69
2021/05/11 19:21:37;;;;;;;5.03;2.78;;;;;;;;;;6185565;23;20032;-70
2021/05/11 19:24:04;;;;;;;6.63;3.58;;;;;;;;;;6173820;23;20013;-70
2021/05/11 19:26:37;;;;;;;6.05;3.13;;;;;;;;;;6185215;23;20001;-73
2021/05/11 19:29:03;;;;;;;5.43;2.85;;;;;;;;;;6173627;23;20009;-71
2021/05/11 19:31:29;;;;;;;5.03;2.65;;;;;;;;;;6185046;23;20067;-71
2021/05/11 19:33:56;;;;;;;14.02;3.15;;;;;;;;;;6185138;23;20370;-72
2021/05/11 19:36:32;;;;;;;8.75;2.97;;;;;;;;;;6184872;23;20100;-72
2021/05/11 19:38:58;;;;;;;4.95;2.35;;;;;;;;;;6180966;23;20035;-70
2021/05/11 19:41:24;;;;;;;8.88;3.10;;;;;;;;;;6177105;23;20005;-72
2021/05/11 19:43:50;;;;;;;10.00;3.33;;;;;;;;;;6184535;23;20004;-70
2021/05/11 19:46:16;;;;;;;8.85;2.90;;;;;;;;;;6185098;23;20340;-70
2021/05/11 19:48:42;;;;;;;5.38;3.13;;;;;;;;;;6184794;23;20071;-69
2021/05/11 19:51:08;;;;;;;9.23;3.03;;;;;;;;;;6184591;23;20015;-68
2021/05/11 19:53:35;;;;;;;4.47;2.65;;;;;;;;;;6182906;23;20430;-71
2021/05/11 19:56:02;;;;;;;7.30;2.38;;;;;;;;;;6170749;23;20092;-69
2021/05/11 19:58:28;;;;;;;4.80;2.47;;;;;;;;;;6182438;23;20371;-71
2021/05/11 20:00:57;;;;;;;9.85;3.35;;;;;;;;;;6183179;23;20018;-70
2021/05/11 20:03:27;;;;;;;6.38;3.20;;;;;;;;;;6175568;23;20449;-70
2021/05/11 20:05:53;;;;;;;10.48;3.00;;;;;;;;;;6182144;23;20084;-71
2021/05/11 20:08:19;;;;;;;5.95;2.60;;;;;;;;;;6178931;23;20012;-70
2021/05/11 20:10:46;;;;;;;9.50;3.17;;;;;;;;;;6184776;23;20058;-70
2021/05/11 20:13:12;;;;;;;5.28;2.90;;;;;;;;;;6184901;23;20013;-71
2021/05/11 20:15:38;;;;;;;7.65;3.22;;;;;;;;;;6185652;23;20080;-71
2021/05/11 20:18:05;;;;;;;12.45;3.40;;;;;;;;;;6184986;23;20690;-69
2021/05/11 20:20:31;;;;;;;3.67;2.30;;;;;;;;;;6158112;23;20044;-70
2021/05/11 20:22:57;;;;;;;7.05;2.50;;;;;;;;;;6184889;23;20009;-70
2021/05/11 20:25:23;;;;;;;4.47;2.70;;;;;;;;;;6158783;23;20012;-69
2021/05/11 20:27:49;;;;;;;7.43;2.80;;;;;;;;;;6184862;23;20001;-70
2021/05/11 20:30:16;;;;;;;5.70;2.67;;;;;;;;;;6159146;23;20474;-70
2021/05/11 20:32:42;;;;;;;6.57;2.70;;;;;;;;;;6185220;23;20013;-72
2021/05/11 20:35:12;;;;;;;3.95;2.40;;;;;;;;;;6185262;23;20091;-70
2021/05/11 20:37:42;;;;;;;4.05;2.50;;;;;;;;;;6184676;23;20039;-72
2021/05/11 20:40:09;;;;;;;6.53;2.40;;;;;;;;;;6154347;23;20078;-70
2021/05/11 20:42:35;;;;;;;7.28;2.75;;;;;;;;;;6184659;23;20035;-71
2021/05/11 20:45:01;;;;;;;5.85;2.60;;;;;;;;;;6185298;23;20012;-70
2021/05/11 20:47:27;;;;;;;5.63;2.78;;;;;;;;;;6184489;23;20009;-70
2021/05/11 20:49:53;;;;;;;5.38;2.75;;;;;;;;;;6185149;23;20423;-71
2021/05/11 20:52:19;;;;;;;10.68;3.58;;;;;;;;;;6185185;23;20009;-72
2021/05/11 20:54:45;;;;;;;4.10;2.70;;;;;;;;;;6159337;23;20033;-71
2021/05/11 20:57:11;;;;;;;3.33;2.45;;;;;;;;;;6185110;23;20005;-72
2021/05/11 20:59:37;;;;;;;5.03;2.53;;;;;;;;;;6185209;23;20012;-72
2021/05/11 21:02:03;;;;;;;7.10;2.80;;;;;;;;;;6185305;23;20335;-70
2021/05/11 21:04:28;;;;;;;6.45;2.90;;;;;;;;;;6185243;23;20119;-70
2021/05/11 21:06:54;;;;;;;4.95;2.42;;;;;;;;;;6185157;23;20327;-70
2021/05/11 21:09:20;;;;;;;13.35;3.75;;;;;;;;;;6185622;23;20035;-70
2021/05/11 21:11:46;;;;;;;7.00;3.00;;;;;;;;;;6183845;23;20005;-70
2021/05/11 21:14:12;;;;;;;5.85;3.00;;;;;;;;;;6186386;23;20078;-69
2021/05/11 21:16:40;;;;;;;5.32;3.20;;;;;;;;;;6186676;23;20005;-70
2021/05/11 21:19:08;;;;;;;8.68;2.97;;;;;;;;;;6186638;23;20007;-70
2021/05/11 21:21:34;;;;;;;7.38;2.88;;;;;;;;;;6186520;23;20025;-69
2021/05/11 21:24:00;;;;;;;5.50;3.10;;;;;;;;;;6186671;23;20040;-69
2021/05/11 21:26:26;;;;;;;6.45;3.10;;;;;;;;;;6186580;23;20009;-70
2021/05/11 21:28:52;;;;;;;7.53;3.10;;;;;;;;;;6187057;23;20035;-71
2021/05/11 21:31:21;;;;;;;9.68;3.55;;;;;;;;;;6186250;23;20386;-72
2021/05/11 21:33:47;;;;;;;6.53;3.25;;;;;;;;;;6185658;23;20028;-72
2021/05/11 21:36:13;;;;;;;11.27;4.30;;;;;;;;;;6185685;23;20001;-72
2021/05/11 21:38:39;;;;;;;14.20;3.78;;;;;;;;;;6187104;23;20055;-71
2021/05/11 21:41:05;;;;;;;7.32;3.60;;;;;;;;;;6186912;23;20005;-69
2021/05/11 21:43:31;;;;;;;11.85;4.00;;;;;;;;;;6186900;23;19997;-69
2021/05/11 21:45:58;;;;;;;8.38;3.92;;;;;;;;;;6187027;23;20426;-69
2021/05/11 21:48:24;;;;;;;10.45;5.10;;;;;;;;;;6186916;23;20430;-69
2021/05/11 21:50:51;;;;;;;10.85;4.13;;;;;;;;;;6186876;23;20080;-70
2021/05/11 21:53:17;;;;;;;8.90;4.28;;;;;;;;;;6186770;23;20009;-69
2021/05/11 21:55:46;;;;;;;10.98;4.55;;;;;;;;;;6186773;23;20012;-69
2021/05/11 21:58:15;;;;;;;8.95;4.20;;;;;;;;;;6186823;23;20063;-70
2021/05/11 22:00:41;;;;;;;10.65;4.45;;;;;;;;;;6186802;23;20326;-69
2021/05/11 22:03:08;;;;;;;13.45;5.72;;;;;;;;;;6186771;23;20139;-70
2021/05/11 22:05:34;;;;;;;8.40;4.85;;;;;;;;;;6186946;23;20032;-70
2021/05/11 22:08:00;;;;;;;20.40;6.10;;;;;;;;;;6186751;23;20011;-70
2021/05/11 22:10:28;;;;;;;12.35;4.72;;;;;;;;;;6186438;23;20083;-70
2021/05/11 22:12:56;;;;;;;13.23;5.35;;;;;;;;;;6186587;23;20041;-69
2021/05/11 22:15:23;;;;;;;13.13;5.88;;;;;;;;;;6160411;23;20418;-69
2021/05/11 22:17:49;;;;;;;9.63;5.10;;;;;;;;;;6187099;23;20363;-68
2021/05/11 22:20:15;;;;;;;10.95;5.13;;;;;;;;;;6186158;23;20415;-67
2021/05/11 22:22:41;;;;;;;14.98;5.55;;;;;;;;;;6186565;23;20326;-68
2021/05/11 22:25:07;;;;;;;12.43;6.30;;;;;;;;;;6186555;23;20005;-68
2021/05/11 22:27:33;;;;;;;12.85;5.57;;;;;;;;;;6160149;23;20009;-69
2021/05/11 22:29:59;;;;;;;11.32;5.07;;;;;;;;;;6186462;23;20005;-69
2021/05/11 22:32:25;;;;;;;12.32;4.70;;;;;;;;;;6186677;23;20140;-69
2021/05/11 22:34:51;;;;;;;9.25;5.10;;;;;;;;;;6186531;23;20049;-69
2021/05/11 22:37:17;;;;;;;11.23;4.30;;;;;;;;;;6186483;23;20009;-68
2021/05/11 22:39:43;;;;;;;9.35;4.20;;;;;;;;;;6186381;23;20011;-68
2021/05/11 22:42:09;;;;;;;10.40;4.60;;;;;;;;;;6186364;23;20005;-69
2021/05/11 22:44:35;;;;;;;10.32;4.13;;;;;;;;;;6186480;23;20013;-68
2021/05/11 22:47:01;;;;;;;12.65;4.35;;;;;;;;;;6186353;23;20058;-68
2021/05/11 22:49:27;;;;;;;13.70;4.72;;;;;;;;;;6186391;23;20005;-69
